Maria Noelle — WDD9564 — position and weather

sailwx.info

Track history (hours):
 
Tides and Currents Weather Stations Pressure Air Temp Water Temp Dewpoint Dewpoint Depression Visibility Wind Speed Wind Dir Waves Ship Positions

Maria Noelle

Owner: MUROS INC, POINT PLEASANT, NJ. More information available from US FCC via Universal Licensing System and Coast Guard Vessel Documentation Center.

Last reported at 2015-Jan-30 04:32 UTC. Time now 2015-Jan-31 07:05 UTC.
Position N 40°03' W 073°46'.

Length 26 m.

Type: Fishing. MMSI: 367313170.

Date/timePositionNaut miles runAvg speedWind from/ knotsBaromVisibWave heightAir tempDewpointWater temp
2015-Jan-30 04:32N 40°03' W 073°46'  
2015-Jan-24 03:25N 40°03' W 073°48'7 8.2
2015-Jan-24 02:33N 40°01' W 073°39'18 8.2
2015-Jan-24 00:23N 39°57' W 073°17'  
2015-Jan-21 19:31N 39°45' W 072°41'7 7.2
2015-Jan-21 18:32N 39°45' W 072°31'4 3.9
2015-Jan-21 17:32N 39°47' W 072°27'3 3.0
2015-Jan-21 16:33N 39°49' W 072°24'0 0.4
2015-Jan-21 15:30N 39°49' W 072°24'3 2.7
2015-Jan-21 14:30N 39°47' W 072°27'3 2.9
2015-Jan-21 13:24N 39°45' W 072°30'1 1.4
2015-Jan-21 12:32N 39°45' W 072°32'3 2.9
2015-Jan-21 11:33N 39°46' W 072°29'2 1.5
2015-Jan-21 10:31N 39°45' W 072°30'3 2.4
2015-Jan-21 09:27N 39°43' W 072°33'3 3.0
2015-Jan-21 08:33N 39°45' W 072°30'3 3.0
2015-Jan-21 07:33N 39°47' W 072°27'0 0.2
2015-Jan-21 06:32N 39°47' W 072°27'3 2.8
2015-Jan-21 05:31N 39°45' W 072°30'3 2.9
2015-Jan-21 04:30N 39°44' W 072°34'3 2.5
2015-Jan-21 03:22N 39°42' W 072°36'3 2.9
2015-Jan-21 02:26N 39°40' W 072°36'18 1.9
2015-Jan-20 17:12N 39°27' W 072°52'2 0.5
2015-Jan-20 13:26N 39°26' W 072°54'3 2.5
2015-Jan-20 12:08N 39°27' W 072°50'3 1.5
2015-Jan-20 10:08N 39°27' W 072°54'3 4.4
2015-Jan-20 09:33N 39°28' W 072°57'7 7.2
2015-Jan-20 08:33N 39°32' W 073°05'8 7.1
2015-Jan-20 07:22N 39°37' W 073°13'6 7.2
2015-Jan-20 06:33N 39°41' W 073°19'  
Track history (hours):
 
Tides and Currents Weather Stations Pressure Air Temp Water Temp Dewpoint Dewpoint Depression Visibility Wind Speed Wind Dir Waves Ship Positions

Maria Noelle

Owner: MUROS INC, POINT PLEASANT, NJ. More information available from US FCC via Universal Licensing System and Coast Guard Vessel Documentation Center.

Last reported at 2015-Jan-30 04:32 UTC. Time now 2015-Jan-31 07:05 UTC.
Position N 40°03' W 073°46'.

Length 26 m.

Type: Fishing. MMSI: 367313170.

Date/timePositionNaut miles runAvg speedWind from/ knotsBaromVisibWave heightAir tempDewpointWater temp
2015-Jan-30 04:32N 40°03' W 073°46'  
2015-Jan-24 03:25N 40°03' W 073°48'7 8.2
2015-Jan-24 02:33N 40°01' W 073°39'18 8.2
2015-Jan-24 00:23N 39°57' W 073°17'  
2015-Jan-21 19:31N 39°45' W 072°41'7 7.2
2015-Jan-21 18:32N 39°45' W 072°31'4 3.9
2015-Jan-21 17:32N 39°47' W 072°27'3 3.0
2015-Jan-21 16:33N 39°49' W 072°24'0 0.4
2015-Jan-21 15:30N 39°49' W 072°24'3 2.7
2015-Jan-21 14:30N 39°47' W 072°27'3 2.9
2015-Jan-21 13:24N 39°45' W 072°30'1 1.4
2015-Jan-21 12:32N 39°45' W 072°32'3 2.9
2015-Jan-21 11:33N 39°46' W 072°29'2 1.5
2015-Jan-21 10:31N 39°45' W 072°30'3 2.4
2015-Jan-21 09:27N 39°43' W 072°33'3 3.0
2015-Jan-21 08:33N 39°45' W 072°30'3 3.0
2015-Jan-21 07:33N 39°47' W 072°27'0 0.2
2015-Jan-21 06:32N 39°47' W 072°27'3 2.8
2015-Jan-21 05:31N 39°45' W 072°30'3 2.9
2015-Jan-21 04:30N 39°44' W 072°34'3 2.5
2015-Jan-21 03:22N 39°42' W 072°36'3 2.9
2015-Jan-21 02:26N 39°40' W 072°36'18 1.9
2015-Jan-20 17:12N 39°27' W 072°52'2 0.5
2015-Jan-20 13:26N 39°26' W 072°54'3 2.5
2015-Jan-20 12:08N 39°27' W 072°50'3 1.5
2015-Jan-20 10:08N 39°27' W 072°54'3 4.4
2015-Jan-20 09:33N 39°28' W 072°57'7 7.2
2015-Jan-20 08:33N 39°32' W 073°05'8 7.1
2015-Jan-20 07:22N 39°37' W 073°13'6 7.2
2015-Jan-20 06:33N 39°41' W 073°19'  

Dump ship's entire track history